createdAt,value
2019-04-29T00:03:41.853Z,9.00
2019-04-29T00:07:52.652Z,9.00
2019-04-29T00:12:03.420Z,8.90
2019-04-29T00:16:15.358Z,8.90
2019-04-29T00:20:30.155Z,8.90
2019-04-29T00:24:40.745Z,8.90
2019-04-29T00:28:51.049Z,8.80
2019-04-29T00:33:01.621Z,8.70
2019-04-29T00:37:25.836Z,8.70
2019-04-29T00:41:38.160Z,8.60
2019-04-29T00:45:48.521Z,8.60
2019-04-29T00:49:58.806Z,8.60
2019-04-29T00:54:12.359Z,8.70
2019-04-29T00:58:22.722Z,8.60
2019-04-29T01:02:33.209Z,8.60
2019-04-29T01:06:44.308Z,8.70
2019-04-29T01:10:54.614Z,8.60
2019-04-29T01:15:06.448Z,8.60
2019-04-29T01:19:16.785Z,8.60
2019-04-29T01:23:27.873Z,8.60
2019-04-29T01:27:45.793Z,8.60
2019-04-29T01:31:56.457Z,8.60
2019-04-29T01:36:17.031Z,8.60
2019-04-29T01:40:45.504Z,8.50
2019-04-29T01:44:56.234Z,8.60
2019-04-29T01:49:06.531Z,8.50
2019-04-29T01:53:16.826Z,8.50
2019-04-29T01:57:27.232Z,8.50
2019-04-29T02:01:37.765Z,8.40
2019-04-29T02:05:48.063Z,8.40
2019-04-29T02:09:59.993Z,8.40
2019-04-29T02:14:10.335Z,8.40
2019-04-29T02:18:20.837Z,8.30
2019-04-29T02:22:38.828Z,8.40
2019-04-29T02:26:49.141Z,8.40
2019-04-29T02:31:01.152Z,8.40
2019-04-29T02:35:11.514Z,8.40
2019-04-29T02:39:26.537Z,8.30
2019-04-29T02:43:38.544Z,8.30
2019-04-29T02:47:49.948Z,8.20
2019-04-29T02:52:00.471Z,8.20
2019-04-29T02:56:10.781Z,8.20
2019-04-29T03:00:28.384Z,8.20
2019-04-29T03:04:52.170Z,8.20
2019-04-29T03:09:03.023Z,8.20
2019-04-29T03:13:13.328Z,8.10
2019-04-29T03:17:24.002Z,8.10
2019-04-29T03:21:36.116Z,8.10
2019-04-29T03:25:46.583Z,8.10
2019-04-29T03:29:56.902Z,8.10
2019-04-29T03:34:07.192Z,8.20
2019-04-29T03:38:17.599Z,8.20
2019-04-29T03:42:27.889Z,8.20
2019-04-29T03:46:38.184Z,8.20
2019-04-29T03:50:48.503Z,8.20
2019-04-29T03:54:59.059Z,8.20
2019-04-29T03:59:09.361Z,8.20
2019-04-29T04:03:21.346Z,8.20
2019-04-29T04:07:48.239Z,8.20
2019-04-29T04:11:58.593Z,8.20
2019-04-29T04:16:11.336Z,8.20
2019-04-29T04:20:21.654Z,8.20
2019-04-29T04:24:31.958Z,8.30
2019-04-29T04:28:42.247Z,8.30
2019-04-29T04:32:53.364Z,8.30
2019-04-29T04:37:03.668Z,8.40
2019-04-29T04:41:14.117Z,8.40
2019-04-29T04:45:24.421Z,8.40
2019-04-29T04:49:34.876Z,8.40
2019-04-29T04:53:45.069Z,8.50
2019-04-29T04:57:55.365Z,8.50
2019-04-29T05:02:05.762Z,8.50
2019-04-29T05:06:16.048Z,8.50
2019-04-29T05:10:26.612Z,8.60
2019-04-29T05:14:36.908Z,8.70
2019-04-29T05:18:47.332Z,8.80
2019-04-29T05:23:00.626Z,8.90
2019-04-29T05:27:10.929Z,8.90
2019-04-29T05:31:21.223Z,9.00
2019-04-29T05:35:36.119Z,9.00
2019-04-29T05:39:47.277Z,9.00
2019-04-29T05:44:03.520Z,9.00
2019-04-29T05:48:15.977Z,9.00
2019-04-29T05:52:34.700Z,9.00
2019-04-29T05:56:45.540Z,9.00
2019-04-29T06:01:00.760Z,9.00
2019-04-29T06:05:12.346Z,9.10
2019-04-29T06:09:22.783Z,9.20
2019-04-29T06:13:34.182Z,9.10
2019-04-29T06:17:46.209Z,9.10
2019-04-29T06:21:56.632Z,9.10
2019-04-29T06:26:06.929Z,9.10
2019-04-29T06:30:17.373Z,9.10
2019-04-29T06:34:27.697Z,9.10
2019-04-29T06:38:38.011Z,9.10
2019-04-29T06:42:49.401Z,9.10
2019-04-29T06:47:01.062Z,9.20
2019-04-29T06:51:11.428Z,9.20
2019-04-29T06:55:21.740Z,9.20
2019-04-29T06:59:32.046Z,9.10
2019-04-29T07:03:42.366Z,9.10
2019-04-29T07:07:53.228Z,9.00
2019-04-29T07:12:03.530Z,8.90
2019-04-29T07:16:17.049Z,8.90
2019-04-29T07:20:26.547Z,9.00
2019-04-29T07:24:36.841Z,9.10
2019-04-29T07:28:48.691Z,9.10
2019-04-29T07:32:59.066Z,9.10
2019-04-29T07:37:09.372Z,9.10
2019-04-29T07:41:20.830Z,9.10
2019-04-29T07:45:43.684Z,9.20
2019-04-29T07:49:47.365Z,9.20
2019-04-29T07:53:57.082Z,9.20
2019-04-29T07:58:07.358Z,9.20
2019-04-29T08:02:17.654Z,9.20
2019-04-29T08:06:28.567Z,9.20
2019-04-29T08:10:52.553Z,9.20
2019-04-29T08:14:53.465Z,9.20
2019-04-29T08:19:04.813Z,9.20
2019-04-29T08:23:15.780Z,9.20
2019-04-29T08:27:38.949Z,9.20
2019-04-29T08:31:38.077Z,9.20
2019-04-29T08:35:48.424Z,9.20
2019-04-29T08:40:14.896Z,9.30
2019-04-29T08:44:17.900Z,9.30
2019-04-29T08:48:28.349Z,9.30
2019-04-29T08:52:38.670Z,9.30
2019-04-29T08:57:02.354Z,9.20
2019-04-29T09:01:04.320Z,9.30
2019-04-29T09:05:14.744Z,9.30
2019-04-29T09:09:29.219Z,9.30
2019-04-29T09:13:38.402Z,9.30
2019-04-29T09:17:48.719Z,9.30
2019-04-29T09:22:03.351Z,9.30
2019-04-29T09:26:18.356Z,9.20
2019-04-29T09:30:28.655Z,9.20
2019-04-29T09:34:38.975Z,9.20
2019-04-29T09:38:49.273Z,9.20
2019-04-29T09:43:14.597Z,9.20
2019-04-29T09:47:14.319Z,9.20
2019-04-29T09:51:27.987Z,9.20
2019-04-29T09:55:39.949Z,9.10
2019-04-29T09:59:53.449Z,9.10
2019-04-29T10:04:08.134Z,9.00
2019-04-29T10:08:18.439Z,9.00
2019-04-29T10:12:28.746Z,9.00
2019-04-29T10:16:46.239Z,9.00
2019-04-29T10:20:58.070Z,8.90
2019-04-29T10:25:08.602Z,9.00
2019-04-29T10:29:21.101Z,9.00
2019-04-29T10:33:31.405Z,8.90
2019-04-29T10:37:41.731Z,9.00
2019-04-29T10:41:52.922Z,9.00
2019-04-29T10:46:10.929Z,9.00
2019-04-29T10:50:24.722Z,9.00
2019-04-29T10:54:35.564Z,9.00
2019-04-29T10:58:45.921Z,9.00
2019-04-29T11:02:56.495Z,9.00
2019-04-29T11:07:14.451Z,9.00
2019-04-29T11:11:27.682Z,9.10
2019-04-29T11:15:38.056Z,9.10
2019-04-29T11:19:48.369Z,9.10
2019-04-29T11:24:00.244Z,9.10
2019-04-29T11:28:11.963Z,9.10
2019-04-29T11:32:24.841Z,9.10
2019-04-29T11:36:39.033Z,9.10
2019-04-29T11:40:51.006Z,9.10
2019-04-29T11:45:03.938Z,9.10
2019-04-29T11:49:15.686Z,9.20
2019-04-29T11:53:26.453Z,9.30
2019-04-29T11:57:44.501Z,9.30
2019-04-29T12:02:05.142Z,9.40
2019-04-29T12:06:20.273Z,9.40
2019-04-29T12:10:27.833Z,9.50
2019-04-29T12:14:48.943Z,9.50
2019-04-29T12:19:00.898Z,9.50
2019-04-29T12:23:15.586Z,9.50
2019-04-29T12:27:23.655Z,9.50
2019-04-29T12:31:53.305Z,9.50
2019-04-29T12:36:16.131Z,9.50
2019-04-29T12:40:35.598Z,9.60
2019-04-29T12:44:59.501Z,9.60
2019-04-29T12:49:13.549Z,9.70
2019-04-29T12:53:21.821Z,9.70
2019-04-29T12:57:32.172Z,9.80
2019-04-29T13:02:00.547Z,9.90
2019-04-29T13:06:12.564Z,9.90
2019-04-29T13:10:24.513Z,9.90
2019-04-29T13:14:38.972Z,9.90
2019-04-29T13:18:53.906Z,10.00
2019-04-29T13:23:17.509Z,10.00
2019-04-29T13:27:20.725Z,10.00
2019-04-29T13:31:38.202Z,10.10
2019-04-29T13:35:47.920Z,10.10
2019-04-29T13:39:55.647Z,10.20
2019-04-29T13:44:07.538Z,10.20
2019-04-29T13:48:53.850Z,10.20
2019-04-29T13:52:47.175Z,10.10
2019-04-29T13:57:07.740Z,10.10
2019-04-29T14:01:24.667Z,10.10
2019-04-29T14:05:32.606Z,10.10
2019-04-29T14:09:42.511Z,10.10
2019-04-29T14:13:53.383Z,10.10
2019-04-29T14:18:06.935Z,10.10
2019-04-29T14:22:22.560Z,10.10
2019-04-29T14:26:29.616Z,10.20
2019-04-29T14:30:43.752Z,10.20
2019-04-29T14:35:02.620Z,10.20
2019-04-29T14:39:18.936Z,10.20
2019-04-29T14:43:42.790Z,10.30
2019-04-29T14:48:10.769Z,10.40
2019-04-29T14:52:21.180Z,10.50
2019-04-29T14:56:31.481Z,10.70
2019-04-29T15:00:43.453Z,11.00
2019-04-29T15:04:53.669Z,11.10
2019-04-29T15:09:07.905Z,11.00
2019-04-29T15:13:21.792Z,10.90
2019-04-29T15:17:40.300Z,10.90
2019-04-29T15:21:52.526Z,10.90
2019-04-29T15:26:02.817Z,10.90
2019-04-29T15:30:13.640Z,10.90
2019-04-29T15:34:24.066Z,10.90
2019-04-29T15:38:34.494Z,10.90
2019-04-29T15:42:49.106Z,11.00
2019-04-29T15:46:56.930Z,11.00
2019-04-29T15:51:09.234Z,11.00
2019-04-29T15:55:19.537Z,11.00
2019-04-29T15:59:30.910Z,11.00
2019-04-29T16:03:41.331Z,11.00
2019-04-29T16:07:55.696Z,11.10
2019-04-29T16:12:13.965Z,11.10
2019-04-29T16:16:19.379Z,11.10
2019-04-29T16:20:29.798Z,11.10
2019-04-29T16:24:40.123Z,11.00
2019-04-29T16:28:50.424Z,11.00
2019-04-29T16:33:00.727Z,11.10
2019-04-29T16:37:18.514Z,11.10
2019-04-29T16:41:28.708Z,11.20
2019-04-29T16:45:44.087Z,11.30
2019-04-29T16:49:57.461Z,11.30
2019-04-29T16:54:07.462Z,11.30
2019-04-29T16:58:18.619Z,11.30
2019-04-29T17:02:29.154Z,11.30
2019-04-29T17:06:41.683Z,11.30
2019-04-29T17:11:02.277Z,11.30
2019-04-29T17:15:24.166Z,11.30
2019-04-29T17:19:24.712Z,11.30
2019-04-29T17:23:35.144Z,11.30
2019-04-29T17:27:47.084Z,11.20
2019-04-29T17:32:15.556Z,11.30
2019-04-29T17:36:26.464Z,11.30
2019-04-29T17:40:37.269Z,11.30
2019-04-29T17:44:47.715Z,11.30
2019-04-29T17:49:08.446Z,11.30
2019-04-29T17:53:21.778Z,11.20
2019-04-29T17:57:39.764Z,11.20
2019-04-29T18:02:08.242Z,11.20
2019-04-29T18:06:29.454Z,11.10
2019-04-29T18:10:41.595Z,11.20
2019-04-29T18:14:52.536Z,11.20
2019-04-29T18:19:10.212Z,11.20
2019-04-29T18:23:22.195Z,11.30
2019-04-29T18:27:35.020Z,11.30
2019-04-29T18:31:46.671Z,11.30
2019-04-29T18:36:03.718Z,11.30
2019-04-29T18:40:09.006Z,11.30
2019-04-29T18:44:19.861Z,11.40
2019-04-29T18:48:30.340Z,11.40
2019-04-29T18:52:43.693Z,11.30
2019-04-29T18:56:55.806Z,11.30
2019-04-29T19:01:06.033Z,11.40
2019-04-29T19:05:21.177Z,11.30
2019-04-29T19:09:35.903Z,11.30
2019-04-29T19:13:48.498Z,11.20
2019-04-29T19:18:01.313Z,11.20
2019-04-29T19:22:09.633Z,11.10
2019-04-29T19:26:22.467Z,11.10
2019-04-29T19:30:32.057Z,11.00
2019-04-29T19:34:43.667Z,11.00
2019-04-29T19:38:55.158Z,10.90
2019-04-29T19:43:10.309Z,10.90
2019-04-29T19:47:18.674Z,10.80
2019-04-29T19:51:30.243Z,10.80
2019-04-29T19:55:41.944Z,10.80
2019-04-29T19:59:54.311Z,10.70
2019-04-29T20:04:22.404Z,10.70
2019-04-29T20:08:50.224Z,10.60
2019-04-29T20:12:46.198Z,10.60
2019-04-29T20:17:15.048Z,10.60
2019-04-29T20:21:36.205Z,10.50
2019-04-29T20:25:48.578Z,10.50
2019-04-29T20:29:58.938Z,10.40
2019-04-29T20:34:09.663Z,10.40
2019-04-29T20:38:20.464Z,10.30
2019-04-29T20:42:30.843Z,10.20
2019-04-29T20:46:45.722Z,10.10
2019-04-29T20:50:54.653Z,10.10
2019-04-29T20:55:09.160Z,10.00
2019-04-29T20:59:19.271Z,10.00
2019-04-29T21:03:32.320Z,9.90
2019-04-29T21:07:42.012Z,9.90
2019-04-29T21:12:00.165Z,9.80
2019-04-29T21:16:10.692Z,9.80
2019-04-29T21:20:20.984Z,9.70
2019-04-29T21:24:31.175Z,9.70
2019-04-29T21:28:42.457Z,9.70
2019-04-29T21:32:53.392Z,9.60
2019-04-29T21:37:10.028Z,9.60
2019-04-29T21:41:27.626Z,9.60
2019-04-29T21:45:39.906Z,9.50
2019-04-29T21:49:54.612Z,9.50
2019-04-29T21:54:02.255Z,9.40
2019-04-29T21:58:12.761Z,9.30
2019-04-29T22:02:23.445Z,9.20
2019-04-29T22:06:34.745Z,9.10
2019-04-29T22:10:45.220Z,9.00
2019-04-29T22:14:56.460Z,8.90
2019-04-29T22:19:07.262Z,8.80
2019-04-29T22:23:18.704Z,8.70
2019-04-29T22:27:29.282Z,8.50
2019-04-29T22:31:39.577Z,8.40
2019-04-29T22:35:49.975Z,8.40
2019-04-29T22:40:03.146Z,8.30
2019-04-29T22:44:15.137Z,8.30
2019-04-29T22:48:26.267Z,8.20
2019-04-29T22:52:36.880Z,8.20
2019-04-29T22:56:52.139Z,8.10
2019-04-29T23:01:02.426Z,8.00
2019-04-29T23:05:11.784Z,7.80
2019-04-29T23:09:22.569Z,7.70
2019-04-29T23:13:33.006Z,7.70
2019-04-29T23:17:47.385Z,7.70
2019-04-29T23:22:10.585Z,7.60
2019-04-29T23:26:21.052Z,7.50
2019-04-29T23:30:31.354Z,7.40
2019-04-29T23:34:41.549Z,7.30
2019-04-29T23:38:51.949Z,7.20
2019-04-29T23:43:03.045Z,6.90
2019-04-29T23:47:13.445Z,6.70
2019-04-29T23:51:27.441Z,6.60
2019-04-29T23:55:35.765Z,6.60
